Time;durP1;ratioP1;P1;durP2;ratioP2;P2;SDS_P1;SDS_P2;PMS_P1;PMS_P2;Temp;Humidity;BMP_temperature;BMP_pressure;BME280_temperature;BME280_humidity;BME280_pressure;Samples;Min_cycle;Max_cycle;Signal;HPM_P1;HPM_P2
2024/02/21 00:00:28;0.00;0.00;0.62;0.00;0.00;0.62;4.23;3.10;;;23.10;27.70;;;;;;2259403;61;20454;-67
2024/02/21 00:03:12;0.00;0.00;0.62;0.00;0.00;0.62;3.23;2.80;;;23.10;27.70;;;;;;2259762;61;20806;-67
2024/02/21 00:05:57;0.00;0.00;0.62;0.00;0.00;0.62;3.87;2.83;;;23.10;27.70;;;;;;2259377;61;20881;-67
2024/02/21 00:08:41;0.00;0.00;0.62;0.00;0.00;0.62;5.53;3.90;;;23.10;27.70;;;;;;2259773;61;20365;-67
2024/02/21 00:11:26;0.00;0.00;0.62;0.00;0.00;0.62;5.10;3.20;;;23.10;27.70;;;;;;2261009;61;20395;-67
2024/02/21 00:14:12;0.00;0.00;0.62;0.00;0.00;0.62;6.03;4.07;;;23.10;28.20;;;;;;2264085;61;20440;-67
2024/02/21 00:16:56;0.00;0.00;0.62;0.00;0.00;0.62;4.50;3.50;;;23.10;27.70;;;;;;2264026;61;20364;-65
2024/02/21 00:19:41;0.00;0.00;0.62;0.00;0.00;0.62;3.60;2.60;;;23.10;27.70;;;;;;2264171;61;20440;-65
2024/02/21 00:22:28;0.00;0.00;0.62;0.00;0.00;0.62;3.13;2.83;;;23.10;27.70;;;;;;2264032;61;20379;-67
2024/02/21 00:25:13;0.00;0.00;0.62;0.00;0.00;0.62;5.73;3.37;;;23.10;27.70;;;;;;2261405;61;20405;-67
2024/02/21 00:27:57;0.00;0.00;0.62;0.00;0.00;0.62;3.47;2.97;;;23.10;27.70;;;;;;2264631;61;20888;-68
2024/02/21 00:30:44;0.00;0.00;0.62;0.00;0.00;0.62;5.53;3.87;;;23.10;27.70;;;;;;2264659;61;20376;-67
2024/02/21 00:33:28;0.00;0.00;0.62;0.00;0.00;0.62;4.23;3.50;;;23.10;27.70;;;;;;2264807;61;21117;-67
2024/02/21 00:36:13;0.00;0.00;0.62;0.00;0.00;0.62;4.70;3.30;;;23.10;27.70;;;;;;2264238;61;20952;-67
2024/02/21 00:38:57;0.00;0.00;0.62;0.00;0.00;0.62;6.70;3.80;;;23.10;27.70;;;;;;2260477;61;20455;-67
2024/02/21 00:41:42;0.00;0.00;0.62;0.00;0.00;0.62;4.53;3.47;;;23.10;27.70;;;;;;2263545;61;20395;-67
2024/02/21 00:44:26;0.00;0.00;0.62;0.00;0.00;0.62;3.60;2.90;;;23.10;27.70;;;;;;2263255;61;20943;-65
2024/02/21 00:47:12;0.00;0.00;0.62;0.00;0.00;0.62;4.13;2.80;;;23.10;27.70;;;;;;2261678;61;20419;-67
2024/02/21 00:49:57;0.00;0.00;0.62;0.00;0.00;0.62;3.20;2.80;;;23.10;27.70;;;;;;2259303;61;20487;-66
2024/02/21 00:52:43;0.00;0.00;0.62;0.00;0.00;0.62;4.53;2.80;;;23.10;28.20;;;;;;2259399;61;20389;-66
2024/02/21 00:55:27;0.00;0.00;0.62;0.00;0.00;0.62;4.40;3.10;;;23.10;27.70;;;;;;2259514;61;20911;-65
2024/02/21 00:58:12;0.00;0.00;0.62;0.00;0.00;0.62;4.63;2.97;;;23.10;27.60;;;;;;2259258;61;20385;-67
2024/02/21 01:00:56;0.00;0.00;0.62;0.00;0.00;0.62;3.93;3.00;;;23.10;27.60;;;;;;2259314;61;20384;-66
2024/02/21 01:03:43;0.00;0.00;0.62;0.00;0.00;0.62;4.90;3.30;;;23.20;27.70;;;;;;2259463;61;20389;-67
2024/02/21 01:06:27;0.00;0.00;0.62;0.00;0.00;0.62;4.60;3.40;;;23.20;27.70;;;;;;2258790;61;20426;-66
2024/02/21 01:09:12;0.00;0.00;0.62;0.00;0.00;0.62;5.70;2.80;;;23.20;27.60;;;;;;2256291;61;20461;-67
2024/02/21 01:11:57;0.00;0.00;0.62;0.00;0.00;0.62;3.60;2.70;;;23.20;27.60;;;;;;2261145;61;20537;-67
2024/02/21 01:14:41;0.00;0.00;0.62;0.00;0.00;0.62;5.00;3.83;;;23.20;27.60;;;;;;2263152;61;20819;-65
2024/02/21 01:17:26;0.00;0.00;0.62;0.00;0.00;0.62;3.03;2.60;;;23.20;27.60;;;;;;2263506;61;20359;-67
2024/02/21 01:20:12;0.00;0.00;0.62;0.00;0.00;0.62;4.10;3.23;;;23.20;27.60;;;;;;2263342;61;20404;-67
2024/02/21 01:22:57;0.00;0.00;0.62;0.00;0.00;0.62;3.37;2.43;;;23.20;27.60;;;;;;2263175;61;20807;-67
2024/02/21 01:25:42;0.00;0.00;0.62;0.00;0.00;0.62;3.60;2.77;;;23.20;27.60;;;;;;2260211;61;20583;-67
2024/02/21 01:28:27;0.00;0.00;0.62;0.00;0.00;0.62;3.60;2.53;;;23.20;27.60;;;;;;2263169;61;20823;-67
2024/02/21 01:31:12;0.00;0.00;0.62;0.00;0.00;0.62;3.50;2.70;;;23.20;27.60;;;;;;2263216;61;20362;-65
2024/02/21 01:33:58;0.00;0.00;0.62;0.00;0.00;0.62;3.87;2.63;;;23.20;27.60;;;;;;2263469;61;20356;-67
2024/02/21 01:36:44;0.00;0.00;0.62;0.00;0.00;0.62;3.27;2.37;;;23.20;27.60;;;;;;2263032;61;20365;-67
2024/02/21 01:39:28;0.00;0.00;0.62;0.00;0.00;0.62;5.27;2.87;;;23.20;27.60;;;;;;2263471;61;20372;-66
2024/02/21 01:42:13;0.00;0.00;0.62;0.00;0.00;0.62;5.13;3.03;;;23.20;27.60;;;;;;2263313;61;20427;-66
2024/02/21 01:44:57;0.00;0.00;0.62;0.00;0.00;0.62;5.93;3.10;;;23.20;27.60;;;;;;2263107;61;20363;-66
2024/02/21 01:47:42;0.00;0.00;0.62;0.00;0.00;0.62;3.23;2.50;;;23.20;27.50;;;;;;2260641;61;20365;-65
2024/02/21 01:50:27;0.00;0.00;0.62;0.00;0.00;0.62;2.80;2.33;;;23.20;27.50;;;;;;2258923;61;20373;-67
2024/02/21 01:53:18;0.00;0.00;0.62;0.00;0.00;0.62;4.10;3.20;;;23.20;27.60;;;;;;2259066;61;20377;-67
2024/02/21 01:56:05;0.00;0.00;0.62;0.00;0.00;0.62;4.47;2.90;;;23.20;27.50;;;;;;2255233;61;20373;-65
2024/02/21 01:58:51;0.00;0.00;0.62;0.00;0.00;0.62;3.43;2.90;;;23.10;27.50;;;;;;2258591;61;20464;-66
2024/02/21 02:01:36;0.00;0.00;0.62;0.00;0.00;0.62;4.67;2.80;;;23.10;27.50;;;;;;2259368;61;20389;-66
2024/02/21 02:04:21;0.00;0.00;0.62;0.00;0.00;0.62;3.00;2.57;;;23.10;27.50;;;;;;2258918;61;20830;-66
2024/02/21 02:07:07;0.00;0.00;0.62;0.00;0.00;0.62;2.80;2.50;;;23.10;27.50;;;;;;2258830;61;20943;-67
2024/02/21 02:09:53;0.00;0.00;0.62;0.00;0.00;0.62;2.90;2.43;;;23.10;27.50;;;;;;2259273;61;20960;-66
2024/02/21 02:12:37;0.00;0.00;0.62;0.00;0.00;0.62;3.67;2.40;;;23.10;27.50;;;;;;2258896;61;20393;-67
2024/02/21 02:15:22;0.00;0.00;0.62;0.00;0.00;0.62;4.30;2.77;;;23.10;27.50;;;;;;2259178;61;20408;-66
2024/02/21 02:18:07;0.00;0.00;0.62;0.00;0.00;0.62;3.20;2.20;;;23.10;27.50;;;;;;2259174;61;20888;-65
2024/02/21 02:20:53;0.00;0.00;0.62;0.00;0.00;0.62;3.13;2.40;;;23.10;27.50;;;;;;2258587;61;20423;-66
2024/02/21 02:23:38;0.00;0.00;0.62;0.00;0.00;0.62;3.30;2.60;;;23.10;27.50;;;;;;2258973;61;20535;-65
2024/02/21 02:26:23;0.00;0.00;0.62;0.00;0.00;0.62;4.90;2.97;;;23.10;27.50;;;;;;2259043;61;20430;-66
2024/02/21 02:29:08;0.00;0.00;0.62;0.00;0.00;0.62;2.60;1.90;;;23.10;27.50;;;;;;2259035;61;20365;-67
2024/02/21 02:31:53;0.00;0.00;0.62;0.00;0.00;0.62;5.20;2.63;;;23.10;27.50;;;;;;2258881;61;21398;-64
2024/02/21 02:34:37;0.00;0.00;0.62;0.00;0.00;0.62;4.73;2.60;;;23.10;27.60;;;;;;2308855;58;20361;-67
2024/02/21 02:37:22;0.00;0.00;0.62;0.00;0.00;0.62;3.40;2.43;;;23.10;27.50;;;;;;2258699;58;20892;-68
2024/02/21 02:40:09;0.00;0.00;0.62;0.00;0.00;0.62;3.60;2.50;;;23.10;27.60;;;;;;2658951;45;20947;-68
2024/02/21 02:42:55;0.00;0.00;0.62;0.00;0.00;0.62;4.10;2.83;;;23.00;27.50;;;;;;2254982;61;20454;-67
2024/02/21 02:45:39;0.00;0.00;0.62;0.00;0.00;0.62;4.47;2.90;;;23.00;27.50;;;;;;2259228;61;20458;-66
2024/02/21 02:48:24;0.00;0.00;0.62;0.00;0.00;0.62;3.70;2.97;;;23.00;27.50;;;;;;2259789;61;20783;-67
2024/02/21 02:51:08;0.00;0.00;0.62;0.00;0.00;0.62;4.20;3.20;;;23.00;27.50;;;;;;2259615;61;20461;-67
2024/02/21 02:53:53;0.00;0.00;0.62;0.00;0.00;0.62;4.40;2.70;;;23.00;27.50;;;;;;2259782;61;20415;-67
2024/02/21 02:56:39;0.00;0.00;0.62;0.00;0.00;0.62;2.90;2.20;;;23.00;27.50;;;;;;2259357;61;20427;-68
2024/02/21 02:59:24;0.00;0.00;0.62;0.00;0.00;0.62;2.97;2.60;;;23.00;27.50;;;;;;2259743;61;20372;-68
2024/02/21 03:02:09;0.00;0.00;0.62;0.00;0.00;0.62;4.00;3.23;;;23.00;27.50;;;;;;2259650;61;20911;-68
2024/02/21 03:04:53;0.00;0.00;0.62;0.00;0.00;0.62;3.27;2.67;;;23.00;27.50;;;;;;2259367;61;20389;-67
2024/02/21 03:07:38;0.00;0.00;0.62;0.00;0.00;0.62;3.70;2.37;;;23.00;27.50;;;;;;2259811;61;20424;-66
2024/02/21 03:10:22;0.00;0.00;0.62;0.00;0.00;0.62;4.03;2.87;;;23.00;27.50;;;;;;2259858;61;20364;-67
2024/02/21 03:13:08;0.00;0.00;0.62;0.00;0.00;0.62;3.53;2.60;;;23.00;27.50;;;;;;2263218;61;20923;-67
2024/02/21 03:15:53;0.00;0.00;0.62;0.00;0.00;0.62;3.70;2.63;;;23.00;27.50;;;;;;2263702;61;20866;-67
2024/02/21 03:18:37;0.00;0.00;0.62;0.00;0.00;0.62;4.00;3.40;;;23.00;27.50;;;;;;2263549;61;20823;-67
2024/02/21 03:21:22;0.00;0.00;0.62;0.00;0.00;0.62;4.00;2.90;;;23.00;27.50;;;;;;2262522;61;20390;-65
2024/02/21 03:24:07;0.00;0.00;0.62;0.00;0.00;0.62;4.33;3.10;;;23.00;27.50;;;;;;2259911;61;20384;-66
2024/02/21 03:26:52;0.00;0.00;0.62;0.00;0.00;0.62;3.63;3.17;;;23.00;27.50;;;;;;2259498;61;20825;-67
2024/02/21 03:29:38;0.00;0.00;0.62;0.00;0.00;0.62;3.13;2.73;;;23.00;27.50;;;;;;2259720;61;20872;-67
2024/02/21 03:32:22;0.00;0.00;0.62;0.00;0.00;0.62;4.27;3.30;;;23.00;27.50;;;;;;2259914;61;20392;-67
2024/02/21 03:35:07;0.00;0.00;0.62;0.00;0.00;0.62;3.30;2.87;;;23.00;27.50;;;;;;2259387;61;20415;-67
2024/02/21 03:37:52;0.00;0.00;0.62;0.00;0.00;0.62;3.30;2.50;;;22.90;28.00;;;;;;2259547;61;20372;-65
2024/02/21 03:40:37;0.00;0.00;0.62;0.00;0.00;0.62;5.43;3.83;;;22.90;27.40;;;;;;2259669;61;20857;-66
2024/02/21 03:43:22;0.00;0.00;0.62;0.00;0.00;0.62;4.00;2.67;;;22.90;27.40;;;;;;2259381;61;20428;-67
2024/02/21 03:46:08;0.00;0.00;0.62;0.00;0.00;0.62;3.00;2.60;;;22.90;27.40;;;;;;2259384;61;20896;-66
2024/02/21 03:48:53;0.00;0.00;0.62;0.00;0.00;0.62;3.20;2.90;;;22.90;27.50;;;;;;2259479;61;20380;-66
2024/02/21 03:51:37;0.00;0.00;0.62;0.00;0.00;0.62;4.50;2.60;;;22.90;27.50;;;;;;2259520;61;20840;-68
2024/02/21 03:54:22;0.00;0.00;0.62;0.00;0.00;0.62;3.00;2.03;;;22.90;27.40;;;;;;2259456;61;20361;-67
2024/02/21 03:57:07;0.00;0.00;0.62;0.00;0.00;0.62;3.10;2.80;;;22.90;27.40;;;;;;2255990;61;20392;-66
2024/02/21 03:59:52;0.00;0.00;0.62;0.00;0.00;0.62;3.20;2.57;;;22.90;27.50;;;;;;2259827;61;20774;-67
2024/02/21 04:02:38;0.00;0.00;0.62;0.00;0.00;0.62;5.20;2.93;;;22.90;27.40;;;;;;2259291;61;20397;-66
2024/02/21 04:05:23;0.00;0.00;0.62;0.00;0.00;0.62;5.03;2.87;;;22.90;27.40;;;;;;2259384;61;20357;-67
2024/02/21 04:08:08;0.00;0.00;0.62;0.00;0.00;0.62;3.67;2.37;;;22.90;27.50;;;;;;2259701;61;20871;-67
2024/02/21 04:10:52;0.00;0.00;0.62;0.00;0.00;0.62;3.27;2.27;;;22.90;27.50;;;;;;2259402;61;20447;-66
2024/02/21 04:13:36;0.00;0.00;0.62;0.00;0.00;0.62;4.30;2.73;;;22.90;27.40;;;;;;2692485;45;20496;-68
2024/02/21 04:16:21;0.00;0.00;0.62;0.00;0.00;0.62;3.50;2.77;;;22.90;27.40;;;;;;2255562;61;20369;-67
2024/02/21 04:19:08;0.00;0.00;0.62;0.00;0.00;0.62;4.00;2.67;;;22.90;27.50;;;;;;2255085;61;20424;-67
2024/02/21 04:21:52;0.00;0.00;0.62;0.00;0.00;0.62;3.80;3.20;;;22.90;27.50;;;;;;2255576;61;20394;-67
2024/02/21 04:24:37;0.00;0.00;0.62;0.00;0.00;0.62;3.60;2.47;;;22.90;27.50;;;;;;2259277;61;20817;-66
2024/02/21 04:27:21;0.00;0.00;0.62;0.00;0.00;0.62;2.90;1.97;;;22.90;27.50;;;;;;2259337;61;20467;-67
2024/02/21 04:30:08;0.00;0.00;0.62;0.00;0.00;0.62;3.47;2.40;;;22.90;27.50;;;;;;2259542;61;20453;-67
2024/02/21 04:32:52;0.00;0.00;0.62;0.00;0.00;0.62;4.00;2.63;;;22.90;27.50;;;;;;2259422;61;20388;-66
2024/02/21 04:35:39;0.00;0.00;0.62;0.00;0.00;0.62;2.70;2.20;;;22.90;27.50;;;;;;2259346;61;20446;-67
2024/02/21 04:38:23;0.00;0.00;0.62;0.00;0.00;0.62;6.60;3.00;;;22.90;27.50;;;;;;2259702;61;20507;-66
2024/02/21 04:41:08;0.00;0.00;0.62;0.00;0.00;0.62;3.23;2.37;;;22.90;27.50;;;;;;2259341;61;20775;-67
2024/02/21 04:43:53;0.00;0.00;0.62;0.00;0.00;0.62;4.00;2.87;;;22.90;27.50;;;;;;2259265;61;20834;-66
2024/02/21 04:46:37;0.00;0.00;0.62;0.00;0.00;0.62;3.50;2.43;;;22.90;27.50;;;;;;2260037;61;20371;-66
2024/02/21 04:49:22;0.00;0.00;0.62;0.00;0.00;0.62;2.83;2.53;;;22.90;27.50;;;;;;2263349;61;20423;-66
2024/02/21 04:52:08;0.00;0.00;0.62;0.00;0.00;0.62;3.03;2.47;;;22.90;27.50;;;;;;2263495;61;20383;-66
2024/02/21 04:54:52;0.00;0.00;0.62;0.00;0.00;0.62;2.50;2.00;;;22.90;27.50;;;;;;2263154;61;20364;-67
2024/02/21 04:57:37;0.00;0.00;0.62;0.00;0.00;0.62;3.80;2.20;;;22.90;27.50;;;;;;2263419;61;20376;-68
2024/02/21 05:00:21;0.00;0.00;0.62;0.00;0.00;0.62;4.90;2.97;;;22.80;27.40;;;;;;2263673;61;20356;-67
2024/02/21 05:03:06;0.00;0.00;0.62;0.00;0.00;0.62;4.30;2.90;;;22.90;27.50;;;;;;2262861;61;20376;-66
2024/02/21 05:05:50;0.00;0.00;0.62;0.00;0.00;0.62;3.40;2.80;;;22.90;27.50;;;;;;2263120;61;20356;-64
2024/02/21 05:08:36;0.00;0.00;0.62;0.00;0.00;0.62;3.40;2.43;;;22.90;27.50;;;;;;2263484;61;20387;-64
2024/02/21 05:11:21;0.00;0.00;0.62;0.00;0.00;0.62;3.80;2.30;;;22.90;27.50;;;;;;2262554;61;20931;-64
2024/02/21 05:14:06;0.00;0.00;0.62;0.00;0.00;0.62;3.63;2.47;;;22.80;27.40;;;;;;2259488;61;20393;-66
2024/02/21 05:16:51;0.00;0.00;0.62;0.00;0.00;0.62;4.03;2.60;;;22.90;27.50;;;;;;2259164;61;20950;-64
2024/02/21 05:19:36;0.00;0.00;0.62;0.00;0.00;0.62;3.27;2.97;;;22.80;27.40;;;;;;2259261;61;20533;-64
2024/02/21 05:22:20;0.00;0.00;0.62;0.00;0.00;0.62;3.23;2.30;;;22.80;27.40;;;;;;2259532;61;20381;-64
2024/02/21 05:25:08;0.00;0.00;0.62;0.00;0.00;0.62;6.00;2.43;;;22.80;27.40;;;;;;2255901;61;20383;-64
2024/02/21 05:27:53;0.00;0.00;0.62;0.00;0.00;0.62;4.27;3.10;;;22.90;27.50;;;;;;2259194;61;20786;-63
2024/02/21 05:30:38;0.00;0.00;0.62;0.00;0.00;0.62;2.83;2.13;;;22.80;27.40;;;;;;2259427;61;20411;-64
2024/02/21 05:33:22;0.00;0.00;0.62;0.00;0.00;0.62;4.97;2.80;;;22.80;27.40;;;;;;2258971;61;20743;-65
2024/02/21 05:36:07;0.00;0.00;0.62;0.00;0.00;0.62;2.50;2.30;;;22.80;27.40;;;;;;2259163;61;20407;-64
2024/02/21 05:38:51;0.00;0.00;0.62;0.00;0.00;0.62;3.33;2.40;;;22.80;27.40;;;;;;2259294;61;20360;-64
2024/02/21 05:41:37;0.00;0.00;0.62;0.00;0.00;0.62;3.20;2.67;;;22.80;27.40;;;;;;2259075;61;20864;-64
2024/02/21 05:44:22;0.00;0.00;0.62;0.00;0.00;0.62;3.40;2.60;;;22.80;27.40;;;;;;2259386;61;21015;-64
2024/02/21 05:47:09;0.00;0.00;0.62;0.00;0.00;0.62;3.03;2.43;;;22.90;27.50;;;;;;2260554;61;20380;-64
2024/02/21 05:49:54;0.00;0.00;0.62;0.00;0.00;0.62;5.23;2.70;;;22.80;27.40;;;;;;2263470;61;20483;-64
2024/02/21 05:52:39;0.00;0.00;0.62;0.00;0.00;0.62;3.60;3.17;;;22.80;27.40;;;;;;2260271;61;20839;-65
2024/02/21 05:55:24;0.00;0.00;0.62;0.00;0.00;0.62;2.60;2.30;;;22.90;27.50;;;;;;2263088;61;20410;-63
2024/02/21 05:58:13;0.00;0.00;0.62;0.00;0.00;0.62;2.53;2.23;;;22.80;27.40;;;;;;2263412;61;20915;-65
2024/02/21 06:00:58;0.00;0.00;0.62;0.00;0.00;0.62;6.20;2.87;;;22.80;27.40;;;;;;2263340;61;20369;-64
2024/02/21 06:03:42;0.00;0.00;0.62;0.00;0.00;0.62;2.90;2.60;;;22.80;27.40;;;;;;2263204;61;20383;-63
2024/02/21 06:06:27;0.00;0.00;0.62;0.00;0.00;0.62;3.60;2.83;;;22.80;27.40;;;;;;2263395;61;20367;-64
2024/02/21 06:09:11;0.00;0.00;0.62;0.00;0.00;0.62;4.13;3.67;;;22.80;27.40;;;;;;2263091;61;20391;-65
2024/02/21 06:11:56;0.00;0.00;0.62;0.00;0.00;0.62;5.10;2.97;;;22.80;27.40;;;;;;2261528;61;20398;-64
2024/02/21 06:14:42;0.00;0.00;0.62;0.00;0.00;0.62;3.57;2.80;;;22.80;27.40;;;;;;2259415;61;20842;-64
2024/02/21 06:17:26;0.00;0.00;0.62;0.00;0.00;0.62;3.30;2.80;;;22.80;27.40;;;;;;2258841;61;20417;-65
2024/02/21 06:20:12;0.00;0.00;0.62;0.00;0.00;0.62;3.10;2.50;;;22.80;27.40;;;;;;2259218;61;20364;-64
2024/02/21 06:22:57;0.00;0.00;0.62;0.00;0.00;0.62;4.57;3.60;;;22.80;27.40;;;;;;2259244;61;20389;-64
2024/02/21 06:25:42;0.00;0.00;0.62;0.00;0.00;0.62;4.00;3.00;;;22.80;27.40;;;;;;2258807;61;20848;-65
2024/02/21 06:28:26;0.00;0.00;0.62;0.00;0.00;0.62;3.80;3.07;;;22.80;27.40;;;;;;2259323;61;20365;-66
2024/02/21 06:31:12;0.00;0.00;0.62;0.00;0.00;0.62;3.03;2.60;;;22.80;27.40;;;;;;2259022;61;20533;-65
2024/02/21 06:33:57;0.00;0.00;0.62;0.00;0.00;0.62;4.57;2.70;;;22.80;27.40;;;;;;2255945;61;20369;-65
2024/02/21 06:36:44;0.00;0.00;0.62;0.00;0.00;0.62;3.10;2.20;;;22.80;27.40;;;;;;2259048;61;20357;-65
2024/02/21 06:39:29;0.00;0.00;0.62;0.00;0.00;0.62;2.93;2.40;;;22.80;27.40;;;;;;2259122;61;20407;-65
2024/02/21 06:42:14;0.00;0.00;0.62;0.00;0.00;0.62;5.60;2.60;;;22.80;27.40;;;;;;2259300;61;20463;-65
2024/02/21 06:44:58;0.00;0.00;0.62;0.00;0.00;0.62;4.10;3.53;;;22.80;27.40;;;;;;2259283;61;20411;-65
2024/02/21 06:47:44;0.00;0.00;0.62;0.00;0.00;0.62;3.87;3.10;;;22.80;27.40;;;;;;2261809;61;20368;-65
2024/02/21 06:50:29;0.00;0.00;0.62;0.00;0.00;0.62;3.73;3.33;;;22.80;27.90;;;;;;2263609;61;20506;-64
2024/02/21 06:53:14;0.00;0.00;0.62;0.00;0.00;0.62;4.80;3.47;;;22.80;27.40;;;;;;2263213;61;20384;-64
2024/02/21 06:55:58;0.00;0.00;0.62;0.00;0.00;0.62;3.97;3.57;;;22.80;27.40;;;;;;2258782;61;20492;-65
2024/02/21 06:58:43;0.00;0.00;0.62;0.00;0.00;0.62;4.60;3.80;;;22.80;27.40;;;;;;2259422;61;20400;-65
2024/02/21 07:01:27;0.00;0.00;0.62;0.00;0.00;0.62;5.30;3.60;;;22.80;27.40;;;;;;2258820;61;20443;-64
2024/02/21 07:04:13;0.00;0.00;0.62;0.00;0.00;0.62;4.60;3.67;;;22.80;27.40;;;;;;2258635;61;20953;-66
2024/02/21 07:06:57;0.00;0.00;0.62;0.00;0.00;0.62;4.93;3.90;;;22.80;27.40;;;;;;2259261;61;20365;-64
2024/02/21 07:09:42;0.00;0.00;0.62;0.00;0.00;0.62;6.03;4.83;;;22.80;27.40;;;;;;2259075;61;20449;-66
2024/02/21 07:12:27;0.00;0.00;0.62;0.00;0.00;0.62;4.90;4.40;;;22.80;27.40;;;;;;2259245;61;20481;-64
2024/02/21 07:15:11;0.00;0.00;0.62;0.00;0.00;0.62;5.73;4.70;;;22.80;27.40;;;;;;2259047;61;20345;-65
2024/02/21 07:17:55;0.00;0.00;0.62;0.00;0.00;0.62;6.47;5.20;;;22.80;27.40;;;;;;2255985;61;20892;-64
2024/02/21 07:20:41;0.00;0.00;0.62;0.00;0.00;0.62;6.93;5.83;;;22.80;27.40;;;;;;2259125;61;20464;-64
2024/02/21 07:23:26;0.00;0.00;0.62;0.00;0.00;0.62;7.20;5.47;;;22.80;27.40;;;;;;2258842;61;20599;-64
2024/02/21 07:26:11;0.00;0.00;0.62;0.00;0.00;0.62;8.27;6.27;;;22.80;27.40;;;;;;2255634;61;20407;-66
2024/02/21 07:28:55;0.00;0.00;0.62;0.00;0.00;0.62;8.00;6.00;;;22.80;27.40;;;;;;2259230;61;20345;-64
2024/02/21 07:31:41;0.00;0.00;0.62;0.00;0.00;0.62;7.27;6.30;;;22.80;27.40;;;;;;2259445;61;20383;-65
2024/02/21 07:34:26;0.00;0.00;0.62;0.00;0.00;0.62;6.90;6.17;;;22.80;27.40;;;;;;2259954;61;20935;-65
2024/02/21 07:37:12;0.00;0.00;0.62;0.00;0.00;0.62;7.23;6.13;;;22.80;27.40;;;;;;2259343;61;20628;-65
2024/02/21 07:39:56;0.00;0.00;0.62;0.00;0.00;0.62;13.20;8.07;;;22.80;27.40;;;;;;2259720;61;20387;-64
2024/02/21 07:42:41;0.00;0.00;0.62;0.00;0.00;0.62;8.50;6.30;;;22.80;27.40;;;;;;2259649;61;20388;-66
2024/02/21 07:45:26;0.00;0.00;0.62;0.00;0.00;0.62;8.30;7.20;;;22.80;27.40;;;;;;2259366;61;21046;-64
2024/02/21 07:48:11;0.00;0.00;0.62;0.00;0.00;0.62;9.10;7.40;;;22.80;27.40;;;;;;2263147;61;20371;-65
2024/02/21 07:50:55;0.00;0.00;0.62;0.00;0.00;0.62;10.77;8.57;;;22.80;27.40;;;;;;2263886;61;20425;-64
2024/02/21 07:53:44;0.00;0.00;0.62;0.00;0.00;0.62;10.50;8.90;;;22.80;27.40;;;;;;2263464;61;20353;-65
2024/02/21 07:56:29;0.00;0.00;0.62;0.00;0.00;0.62;10.00;7.70;;;22.80;27.40;;;;;;2263749;61;20467;-64
2024/02/21 07:59:14;0.00;0.00;0.62;0.00;0.00;0.62;10.83;8.50;;;22.80;27.40;;;;;;2263806;61;20406;-64
2024/02/21 08:01:59;0.00;0.00;0.62;0.00;0.00;0.62;8.87;7.97;;;22.80;27.40;;;;;;2260272;61;20388;-65
2024/02/21 08:04:43;0.00;0.00;0.62;0.00;0.00;0.62;9.73;8.03;;;22.80;27.40;;;;;;2263576;61;20480;-66
2024/02/21 08:07:29;0.00;0.00;0.62;0.00;0.00;0.62;8.93;7.97;;;22.80;27.40;;;;;;2263559;61;20590;-65
2024/02/21 08:10:15;0.00;0.00;0.62;0.00;0.00;0.62;9.20;8.30;;;22.80;27.40;;;;;;2263492;61;20958;-64
2024/02/21 08:13:00;0.00;0.00;0.62;0.00;0.00;0.62;9.37;7.80;;;22.80;27.40;;;;;;2260199;61;20818;-65
2024/02/21 08:15:44;0.00;0.00;0.62;0.00;0.00;0.62;8.70;7.73;;;22.80;27.40;;;;;;2259254;61;20357;-65
2024/02/21 08:18:29;0.00;0.00;0.62;0.00;0.00;0.62;9.17;8.17;;;22.80;27.40;;;;;;2259872;61;20903;-64
2024/02/21 08:21:14;0.00;0.00;0.62;0.00;0.00;0.62;9.33;7.70;;;22.80;27.40;;;;;;2259471;61;20365;-65
2024/02/21 08:23:58;0.00;0.00;0.62;0.00;0.00;0.62;8.37;7.57;;;22.80;27.40;;;;;;2259447;61;20472;-64
2024/02/21 08:26:45;0.00;0.00;0.62;0.00;0.00;0.62;7.73;6.93;;;22.80;28.00;;;;;;2259744;61;20349;-64
2024/02/21 08:29:29;0.00;0.00;0.62;0.00;0.00;0.62;8.23;6.80;;;22.80;27.40;;;;;;2259529;61;20369;-64
2024/02/21 08:32:14;0.00;0.00;0.62;0.00;0.00;0.62;9.13;7.27;;;22.80;27.40;;;;;;2259422;61;20385;-65
2024/02/21 08:34:58;0.00;0.00;0.62;0.00;0.00;0.62;7.90;7.00;;;22.80;27.40;;;;;;2259702;61;20369;-64
2024/02/21 08:37:43;0.00;0.00;0.62;0.00;0.00;0.62;8.67;6.70;;;22.80;27.40;;;;;;2259247;61;20769;-64
2024/02/21 08:40:27;0.00;0.00;0.62;0.00;0.00;0.62;8.57;6.30;;;22.80;27.40;;;;;;2259679;61;20811;-65
2024/02/21 08:43:13;0.00;0.00;0.62;0.00;0.00;0.62;9.00;7.20;;;22.80;27.50;;;;;;2259477;61;20800;-65
2024/02/21 08:45:58;0.00;0.00;0.62;0.00;0.00;0.62;8.53;6.70;;;22.80;27.40;;;;;;2259090;61;20972;-66
2024/02/21 08:48:43;0.00;0.00;0.62;0.00;0.00;0.62;8.70;6.30;;;22.80;27.40;;;;;;2693506;45;20417;-65
2024/02/21 08:51:27;0.00;0.00;0.62;0.00;0.00;0.62;10.97;7.10;;;22.80;27.40;;;;;;2255397;61;20795;-64
2024/02/21 08:54:12;0.00;0.00;0.62;0.00;0.00;0.62;9.70;7.20;;;22.80;27.40;;;;;;2254704;61;20859;-68
2024/02/21 08:56:57;0.00;0.00;0.62;0.00;0.00;0.62;9.23;7.07;;;22.80;27.40;;;;;;2255384;61;20365;-65
2024/02/21 08:59:43;0.00;0.00;0.62;0.00;0.00;0.62;7.17;6.47;;;22.80;27.40;;;;;;2255363;61;20426;-66
2024/02/21 09:02:27;0.00;0.00;0.62;0.00;0.00;0.62;11.40;6.50;;;22.80;27.40;;;;;;2255489;61;20386;-64
2024/02/21 09:05:12;0.00;0.00;0.62;0.00;0.00;0.62;9.23;7.00;;;22.80;27.40;;;;;;2255461;61;20433;-64
2024/02/21 09:07:56;0.00;0.00;0.62;0.00;0.00;0.62;11.60;7.17;;;22.80;27.40;;;;;;2255033;61;20797;-66
2024/02/21 09:10:41;0.00;0.00;0.62;0.00;0.00;0.62;7.23;6.40;;;22.80;27.40;;;;;;2255496;61;20370;-65
2024/02/21 09:13:26;0.00;0.00;0.62;0.00;0.00;0.62;8.80;7.60;;;22.80;27.40;;;;;;2725641;45;20350;-65
2024/02/21 09:16:12;0.00;0.00;0.62;0.00;0.00;0.62;9.10;6.93;;;22.80;27.40;;;;;;2254934;61;20378;-66
2024/02/21 09:18:57;0.00;0.00;0.62;0.00;0.00;0.62;6.53;5.40;;;22.80;27.40;;;;;;2255578;61;20841;-64
2024/02/21 09:21:42;0.00;0.00;0.62;0.00;0.00;0.62;8.87;6.13;;;22.80;27.40;;;;;;2255165;61;20381;-64
2024/02/21 09:24:26;0.00;0.00;0.62;0.00;0.00;0.62;11.00;6.37;;;22.80;27.40;;;;;;2255240;61;20393;-64
2024/02/21 09:27:11;0.00;0.00;0.62;0.00;0.00;0.62;8.13;6.20;;;22.80;27.40;;;;;;2255348;61;20454;-65
2024/02/21 09:29:56;0.00;0.00;0.62;0.00;0.00;0.62;8.40;6.50;;;22.80;27.40;;;;;;2255010;61;20373;-65
2024/02/21 09:32:42;0.00;0.00;0.62;0.00;0.00;0.62;8.47;5.70;;;22.80;27.40;;;;;;2255405;61;20915;-65
2024/02/21 09:35:27;0.00;0.00;0.62;0.00;0.00;0.62;9.80;7.03;;;22.80;27.40;;;;;;2255364;61;20416;-64
2024/02/21 09:38:12;0.00;0.00;0.62;0.00;0.00;0.62;7.40;6.07;;;22.80;27.40;;;;;;2256670;61;20631;-64
2024/02/21 09:41:03;0.00;0.00;0.62;0.00;0.00;0.62;7.67;5.70;;;22.90;27.50;;;;;;2259254;61;20366;-64
2024/02/21 09:43:53;0.00;0.00;0.62;0.00;0.00;0.62;8.40;5.57;;;22.80;27.40;;;;;;2259069;61;20377;-65
2024/02/21 09:46:44;0.00;0.00;0.62;0.00;0.00;0.62;6.63;5.83;;;22.80;27.40;;;;;;2259966;61;20992;-64
2024/02/21 09:49:33;0.00;0.00;0.62;0.00;0.00;0.62;6.77;5.60;;;22.80;27.30;;;;;;2263576;61;20359;-64
2024/02/21 09:52:20;0.00;0.00;0.62;0.00;0.00;0.62;6.97;5.93;;;22.80;27.30;;;;;;2262785;61;20399;-65
2024/02/21 09:55:08;0.00;0.00;0.62;0.00;0.00;0.62;7.33;5.17;;;22.80;27.30;;;;;;2260199;61;20363;-66
2024/02/21 09:57:54;0.00;0.00;0.62;0.00;0.00;0.62;5.83;5.23;;;22.80;27.30;;;;;;2259866;61;20370;-65
2024/02/21 10:00:39;0.00;0.00;0.62;0.00;0.00;0.62;7.27;5.60;;;22.80;27.30;;;;;;2263168;61;20368;-64
2024/02/21 10:03:23;0.00;0.00;0.62;0.00;0.00;0.62;8.63;5.17;;;22.80;27.30;;;;;;2263548;61;20378;-65
2024/02/21 10:06:09;0.00;0.00;0.62;0.00;0.00;0.62;5.80;4.83;;;22.80;27.30;;;;;;2262695;61;20371;-65
2024/02/21 10:08:54;0.00;0.00;0.62;0.00;0.00;0.62;9.27;5.20;;;22.90;27.40;;;;;;2263309;61;20422;-64
2024/02/21 10:11:39;0.00;0.00;0.62;0.00;0.00;0.62;8.67;6.10;;;22.90;27.60;;;;;;2262043;61;20408;-65
2024/02/21 10:14:24;0.00;0.00;0.62;0.00;0.00;0.62;6.43;4.97;;;22.90;27.40;;;;;;2258820;61;20376;-65
2024/02/21 10:17:16;0.00;0.00;0.62;0.00;0.00;0.62;6.30;5.17;;;22.90;27.40;;;;;;2259148;61;20376;-65
2024/02/21 10:20:09;0.00;0.00;0.62;0.00;0.00;0.62;6.00;4.33;;;22.90;27.40;;;;;;2259181;61;20542;-65
2024/02/21 10:23:09;0.00;0.00;0.62;0.00;0.00;0.62;7.87;5.50;;;22.90;27.40;;;;;;2255812;61;20956;-64
2024/02/21 10:25:53;0.00;0.00;0.62;0.00;0.00;0.62;7.10;5.50;;;22.90;27.40;;;;;;2259169;61;20389;-64
2024/02/21 10:28:57;0.00;0.00;0.62;0.00;0.00;0.62;5.87;4.73;;;22.90;27.30;;;;;;2259030;61;20422;-64
2024/02/21 10:31:41;0.00;0.00;0.62;0.00;0.00;0.62;7.27;4.73;;;22.90;27.40;;;;;;2259394;61;20380;-64
2024/02/21 10:34:26;0.00;0.00;0.62;0.00;0.00;0.62;6.10;4.23;;;22.90;27.40;;;;;;2259099;61;20816;-67
2024/02/21 10:37:11;0.00;0.00;0.62;0.00;0.00;0.62;7.03;4.90;;;22.90;27.30;;;;;;2258949;61;20781;-65
2024/02/21 10:39:57;0.00;0.00;0.62;0.00;0.00;0.62;8.20;4.77;;;22.90;27.30;;;;;;2259367;61;20361;-64
2024/02/21 10:42:42;0.00;0.00;0.62;0.00;0.00;0.62;6.30;4.63;;;22.90;27.30;;;;;;2258928;61;20482;-66
2024/02/21 10:45:34;0.00;0.00;0.62;0.00;0.00;0.62;6.30;4.00;;;22.90;27.30;;;;;;2259127;61;20764;-64
2024/02/21 10:48:33;0.00;0.00;0.62;0.00;0.00;0.62;5.70;4.10;;;22.90;27.30;;;;;;2259297;61;20892;-64
2024/02/21 10:51:20;0.00;0.00;0.62;0.00;0.00;0.62;4.93;4.23;;;22.90;27.30;;;;;;2258910;61;20373;-66